Terminal Aerodrome Forecast
Issued by NWS

Home | Current Version | Previous Version | Text Only | Print | Product List | Glossary On
Versions: 1 2 3 4 5 6 7 8 9 10 11 12 13 14 15 16 17 18 19 20 21 22 23 24 25 26 27
000
FTUS41 KOKX 152335
TAFSWF
TAF
KSWF 152335Z 1600/1706 VRB03KT 5SM -SN SCT015 OVC025
      TEMPO 1600/1601 2SM -SN BR BKN015 OVC025
     FM160100 VRB03KT P6SM VCSH BKN035 BKN120
     FM160300 24009KT P6SM SCT040 SCT120
     FM160600 25011KT P6SM SCT250
     FM161400 26014G22KT P6SM SCT040 SCT120
     FM161600 27016G25KT P6SM VCSH BKN035 BKN100
     FM162100 26012KT P6SM VCSH BKN035 BKN100
     FM162300 32007KT P6SM BKN040
      AMD NOT SKED=

USA.gov is the U.S. government's official web portal to all federal, state and local government web resources and services.